aviador You're here:

MMZH Decoded Metar

ZIHUATANEJO in MEXICO
Report Time2017-06-23 21:40:00
UTC Time2017-06-23 22:33:15
Flight Rules vfr VFR
Wind230° at 11 kt
W.Decomp.*RWY 26: 8.8 kt HW 6.6 kt LCW
W.Rank230° ranks 3
Current wind is above 230° avg. (7.6)
Visibility9999 m
Phenomena:N/A
Clouds:Few 020 Hf
Expected CloudBase > 3,200 ft AGL from Temp-Dew spread
CeilingNone
Temp32°C (ISA +17)
Dew Point24°C (63% RH)
Heat Index38.0°C
QNH1007 hPa
Density Alt2,559 ft
Elevation20 ft
Report Wrong Elevation
Raw Report
METAR MMZH 232140Z 23011KT 7SM FEW020 32/24 A2973 RMK 8/100 HZY ISOL
CI=

Extra information for MMZH:More info

Metar Taf Metar & Taf Last 4 Metars F.Rules Stats Wind Profile Meteogram Temp Stats Airport Information Weather charts Add Link Nearby VenuesMetar ALERT Operation Metar Decoded Social comments